createdAt,value
2023-01-18T00:01:05.539Z,19.70
2023-01-18T00:03:33.762Z,18.27
2023-01-18T00:06:05.912Z,19.60
2023-01-18T00:08:34.394Z,18.45
2023-01-18T00:11:07.092Z,19.80
2023-01-18T00:13:34.398Z,19.50
2023-01-18T00:16:04.142Z,18.13
2023-01-18T00:18:31.441Z,18.63
2023-01-18T00:21:05.342Z,20.08
2023-01-18T00:23:32.340Z,20.20
2023-01-18T00:26:08.451Z,19.63
2023-01-18T00:28:36.054Z,19.52
2023-01-18T00:31:08.623Z,20.23
2023-01-18T00:33:35.503Z,19.92
2023-01-18T00:36:04.297Z,20.38
2023-01-18T00:38:31.421Z,21.63
2023-01-18T00:40:58.483Z,21.85
2023-01-18T00:43:40.528Z,20.58
2023-01-18T00:46:12.863Z,20.95
2023-01-18T00:48:41.663Z,20.80
2023-01-18T00:51:13.063Z,21.23
2023-01-18T00:53:40.938Z,20.92
2023-01-18T00:56:09.607Z,21.17
2023-01-18T00:58:37.686Z,21.65
2023-01-18T01:01:06.785Z,21.38
2023-01-18T01:03:54.468Z,21.40
2023-01-18T01:06:44.669Z,20.55
2023-01-18T01:09:19.319Z,21.83
2023-01-18T01:12:05.606Z,20.48
2023-01-18T01:14:53.286Z,20.30
2023-01-18T01:17:38.996Z,20.10
2023-01-18T01:20:25.600Z,20.83
2023-01-18T01:23:13.974Z,20.08
2023-01-18T01:26:00.795Z,20.65
2023-01-18T01:28:27.696Z,20.77
2023-01-18T01:30:59.281Z,21.02
2023-01-18T01:33:26.756Z,21.52
2023-01-18T01:36:11.792Z,19.60
2023-01-18T01:38:39.403Z,21.30
2023-01-18T01:41:07.674Z,22.00
2023-01-18T01:43:40.390Z,21.92
2023-01-18T01:46:19.865Z,19.70
2023-01-18T01:48:48.421Z,21.42
2023-01-18T01:51:18.220Z,21.17
2023-01-18T01:53:48.707Z,20.70
2023-01-18T01:56:15.926Z,22.00
2023-01-18T01:58:43.727Z,20.65
2023-01-18T02:01:10.772Z,22.45
2023-01-18T02:03:40.596Z,22.38
2023-01-18T02:06:24.563Z,21.55
2023-01-18T02:08:53.574Z,22.00
2023-01-18T02:11:20.433Z,21.67
2023-01-18T02:13:47.368Z,21.83
2023-01-18T02:16:31.045Z,22.23
2023-01-18T02:19:23.453Z,21.67
2023-01-18T02:22:21.850Z,21.80
2023-01-18T02:25:09.860Z,22.70
2023-01-18T02:27:59.871Z,22.08
2023-01-18T02:30:43.420Z,21.80
2023-01-18T02:33:32.269Z,22.00
2023-01-18T02:36:02.675Z,21.85
2023-01-18T02:38:44.472Z,23.48
2023-01-18T02:41:22.430Z,23.27
2023-01-18T02:44:12.316Z,22.80
2023-01-18T02:46:40.516Z,22.98
2023-01-18T02:49:23.093Z,23.08
2023-01-18T02:51:50.057Z,23.95
2023-01-18T02:54:24.394Z,23.80
2023-01-18T02:56:54.628Z,23.20
2023-01-18T02:59:36.879Z,23.17
2023-01-18T03:02:20.683Z,24.30
2023-01-18T03:04:55.819Z,22.65
2023-01-18T03:07:35.687Z,24.08
2023-01-18T03:10:07.392Z,23.90
2023-01-18T03:12:48.411Z,25.25
2023-01-18T03:15:42.846Z,25.10
2023-01-18T03:18:34.394Z,24.50
2023-01-18T03:21:05.593Z,23.75
2023-01-18T03:23:40.072Z,25.00
2023-01-18T03:26:15.305Z,23.80
2023-01-18T03:29:07.428Z,24.08
2023-01-18T03:32:07.273Z,23.88
2023-01-18T03:34:37.885Z,25.83
2023-01-18T03:37:10.873Z,25.20
2023-01-18T03:39:45.653Z,25.80
2023-01-18T03:42:21.939Z,24.75
2023-01-18T03:44:56.035Z,24.02
2023-01-18T03:47:23.069Z,25.70
2023-01-18T03:49:50.277Z,26.75
2023-01-18T03:52:38.810Z,25.95
2023-01-18T03:55:26.367Z,24.58
2023-01-18T03:58:00.734Z,26.27
2023-01-18T04:00:27.715Z,25.73
2023-01-18T04:02:54.727Z,27.10
2023-01-18T04:05:21.778Z,26.33
2023-01-18T04:07:49.559Z,24.70
2023-01-18T04:10:16.648Z,27.70
2023-01-18T04:12:43.687Z,25.60
2023-01-18T04:15:12.304Z,26.13
2023-01-18T04:17:39.864Z,27.27
2023-01-18T04:20:07.549Z,26.77
2023-01-18T04:22:35.049Z,27.75
2023-01-18T04:25:02.013Z,25.67
2023-01-18T04:27:29.076Z,28.10
2023-01-18T04:29:57.025Z,28.17
2023-01-18T04:32:23.933Z,25.65
2023-01-18T04:34:50.823Z,27.60
2023-01-18T04:37:17.725Z,26.48
2023-01-18T04:39:44.653Z,27.35
2023-01-18T04:42:11.554Z,27.85
2023-01-18T04:44:38.490Z,27.75
2023-01-18T04:47:05.426Z,28.45
2023-01-18T04:49:32.316Z,27.55
2023-01-18T04:51:59.193Z,28.17
2023-01-18T04:54:26.245Z,27.35
2023-01-18T04:56:53.739Z,27.42
2023-01-18T04:59:20.639Z,28.63
2023-01-18T05:01:47.558Z,28.27
2023-01-18T05:04:14.743Z,28.73
2023-01-18T05:06:41.855Z,29.75
2023-01-18T05:09:11.663Z,28.73
2023-01-18T05:11:38.625Z,30.05
2023-01-18T05:14:05.475Z,28.05
2023-01-18T05:16:32.397Z,28.88
2023-01-18T05:18:59.313Z,28.13
2023-01-18T05:21:26.556Z,28.70
2023-01-18T05:23:54.800Z,28.90
2023-01-18T05:26:23.936Z,28.73
2023-01-18T05:28:57.426Z,28.63
2023-01-18T05:31:24.937Z,28.15
2023-01-18T05:33:52.143Z,29.48
2023-01-18T05:36:19.199Z,28.92
2023-01-18T05:38:47.045Z,27.42
2023-01-18T05:41:13.949Z,27.38
2023-01-18T05:43:41.141Z,28.92
2023-01-18T05:46:08.484Z,27.80
2023-01-18T05:48:35.430Z,27.52
2023-01-18T05:51:08.832Z,27.92
2023-01-18T05:53:35.926Z,28.45
2023-01-18T05:56:07.650Z,29.25
2023-01-18T05:58:34.779Z,28.40
2023-01-18T06:01:01.772Z,27.05
2023-01-18T06:03:28.668Z,27.60
2023-01-18T06:05:55.575Z,26.70
2023-01-18T06:08:22.595Z,27.90
2023-01-18T06:10:57.702Z,26.63
2023-01-18T06:13:29.471Z,26.40
2023-01-18T06:15:58.292Z,27.42
2023-01-18T06:18:26.914Z,27.23
2023-01-18T06:20:55.194Z,26.52
2023-01-18T06:23:22.388Z,26.83
2023-01-18T06:25:49.424Z,26.63
2023-01-18T06:28:16.561Z,25.05
2023-01-18T06:30:43.751Z,26.30
2023-01-18T06:33:13.204Z,26.95
2023-01-18T06:35:40.163Z,24.67
2023-01-18T06:38:07.358Z,25.55
2023-01-18T06:40:34.251Z,27.20
2023-01-18T06:43:01.598Z,26.20
2023-01-18T06:45:29.667Z,26.40
2023-01-18T06:47:56.601Z,27.17
2023-01-18T06:50:23.569Z,27.30
2023-01-18T06:52:51.489Z,26.52
2023-01-18T06:55:19.892Z,26.05
2023-01-18T06:57:47.912Z,26.20
2023-01-18T07:00:16.931Z,25.70
2023-01-18T07:02:43.803Z,27.40
2023-01-18T07:05:10.817Z,26.25
2023-01-18T07:07:37.733Z,26.10
2023-01-18T07:10:04.923Z,26.33
2023-01-18T07:12:31.828Z,26.98
2023-01-18T07:14:59.607Z,25.98
2023-01-18T07:17:27.342Z,25.52
2023-01-18T07:19:54.211Z,24.85
2023-01-18T07:22:21.194Z,26.40
2023-01-18T07:24:48.125Z,24.40
2023-01-18T07:27:14.992Z,25.17
2023-01-18T07:29:41.925Z,25.05
2023-01-18T07:32:08.845Z,26.73
2023-01-18T07:34:35.735Z,25.23
2023-01-18T07:37:02.747Z,27.85
2023-01-18T07:39:29.700Z,24.52
2023-01-18T07:41:56.623Z,24.73
2023-01-18T07:44:24.681Z,24.40
2023-01-18T07:46:51.558Z,25.35
2023-01-18T07:49:18.458Z,24.23
2023-01-18T07:51:45.363Z,22.98
2023-01-18T07:54:12.237Z,24.00
2023-01-18T07:56:40.305Z,22.98
2023-01-18T07:59:07.421Z,23.83
2023-01-18T08:01:34.414Z,23.80
2023-01-18T08:04:01.391Z,23.35
2023-01-18T08:06:28.791Z,22.25
2023-01-18T08:08:57.085Z,24.15
2023-01-18T08:11:24.616Z,23.30
2023-01-18T08:13:52.749Z,23.60
2023-01-18T08:16:22.401Z,23.58
2023-01-18T08:18:50.796Z,22.08
2023-01-18T08:21:18.019Z,22.73
2023-01-18T08:23:45.014Z,21.48
2023-01-18T08:26:13.771Z,21.52
2023-01-18T08:28:41.761Z,21.75
2023-01-18T08:31:17.777Z,21.75
2023-01-18T08:33:47.674Z,21.20
2023-01-18T08:36:20.259Z,21.35
2023-01-18T08:38:59.890Z,21.95
2023-01-18T08:41:31.275Z,21.23
2023-01-18T08:43:59.104Z,22.08
2023-01-18T08:46:26.377Z,20.92
2023-01-18T08:48:55.388Z,22.02
2023-01-18T08:51:23.340Z,21.10
2023-01-18T08:53:56.683Z,22.10
2023-01-18T08:56:23.708Z,21.50
2023-01-18T08:58:52.457Z,21.83
2023-01-18T09:01:19.876Z,21.63
2023-01-18T09:03:49.081Z,21.27
2023-01-18T09:06:16.874Z,21.25
2023-01-18T09:08:46.445Z,20.20
2023-01-18T09:11:13.363Z,20.30
2023-01-18T09:13:58.543Z,21.25
2023-01-18T09:16:26.408Z,21.27
2023-01-18T09:18:55.444Z,20.35
2023-01-18T09:21:22.440Z,21.27
2023-01-18T09:23:51.410Z,20.95
2023-01-18T09:26:20.770Z,20.17
2023-01-18T09:28:51.539Z,22.10
2023-01-18T09:31:20.373Z,21.33
2023-01-18T09:33:53.203Z,20.73
2023-01-18T09:36:26.569Z,20.98
2023-01-18T09:38:57.409Z,19.08
2023-01-18T09:41:43.255Z,20.00
2023-01-18T09:44:18.087Z,20.88
2023-01-18T09:46:48.097Z,20.02
2023-01-18T09:49:23.763Z,21.27
2023-01-18T09:52:24.831Z,21.42
2023-01-18T09:55:09.041Z,19.83
2023-01-18T09:57:39.037Z,20.75
2023-01-18T10:00:19.177Z,19.02
2023-01-18T10:02:48.764Z,19.20
2023-01-18T10:05:23.328Z,18.40
2023-01-18T10:08:16.236Z,18.13
2023-01-18T10:11:03.039Z,19.38
2023-01-18T10:13:38.898Z,17.90
2023-01-18T10:16:15.805Z,18.48
2023-01-18T10:18:51.736Z,18.38
2023-01-18T10:21:47.590Z,18.55
2023-01-18T10:24:39.795Z,18.52
2023-01-18T10:27:25.420Z,16.88
2023-01-18T10:30:28.179Z,17.15
2023-01-18T10:33:03.111Z,16.98
2023-01-18T10:35:36.744Z,17.05
2023-01-18T10:38:16.479Z,17.70
2023-01-18T10:40:46.142Z,17.50
2023-01-18T10:43:20.540Z,16.52
2023-01-18T10:45:47.688Z,16.52
2023-01-18T10:48:17.455Z,15.75
2023-01-18T10:50:53.116Z,15.07
2023-01-18T10:53:26.314Z,15.73
2023-01-18T10:56:03.939Z,15.35
2023-01-18T10:58:33.609Z,16.48
2023-01-18T11:01:03.726Z,15.13
2023-01-18T11:03:37.147Z,16.02
2023-01-18T11:06:07.200Z,15.60
2023-01-18T11:08:35.902Z,15.75
2023-01-18T11:11:02.856Z,16.15
2023-01-18T11:13:43.756Z,15.23
2023-01-18T11:16:13.990Z,15.88
2023-01-18T11:18:56.545Z,15.43
2023-01-18T11:21:24.698Z,15.40
2023-01-18T11:23:55.396Z,15.05
2023-01-18T11:26:23.574Z,16.85
2023-01-18T11:29:00.612Z,14.75
2023-01-18T11:31:32.165Z,14.35
2023-01-18T11:34:00.179Z,13.32
2023-01-18T11:36:41.913Z,13.60
2023-01-18T11:39:29.961Z,13.88
2023-01-18T11:42:27.509Z,13.73
2023-01-18T11:45:04.472Z,13.15
2023-01-18T11:47:54.813Z,12.77
2023-01-18T11:50:28.396Z,12.23
2023-01-18T11:53:00.331Z,13.02
2023-01-18T11:55:36.597Z,12.32
2023-01-18T11:58:20.674Z,12.60
2023-01-18T12:01:06.168Z,13.05
2023-01-18T12:03:51.963Z,12.57
2023-01-18T12:06:48.364Z,13.07
2023-01-18T12:09:45.429Z,13.70
2023-01-18T12:12:26.573Z,13.60
2023-01-18T12:15:09.260Z,12.75
2023-01-18T12:18:11.940Z,13.75
2023-01-18T12:20:49.860Z,13.55
2023-01-18T12:23:34.944Z,13.70
2023-01-18T12:26:11.779Z,12.80
2023-01-18T12:28:57.730Z,13.48
2023-01-18T12:32:21.618Z,14.05
2023-01-18T12:35:00.527Z,11.85
2023-01-18T12:37:39.671Z,12.27
2023-01-18T12:40:31.762Z,12.38
2023-01-18T12:43:10.519Z,12.80
2023-01-18T12:45:48.897Z,11.95
2023-01-18T12:48:41.223Z,12.20
2023-01-18T12:51:14.051Z,11.77
2023-01-18T12:54:01.320Z,13.13
2023-01-18T12:56:33.427Z,13.65
2023-01-18T12:59:13.862Z,13.13
2023-01-18T13:01:55.066Z,13.75
2023-01-18T13:04:28.194Z,14.05
2023-01-18T13:06:59.433Z,15.93
2023-01-18T13:09:35.170Z,17.58
2023-01-18T13:12:04.063Z,15.82
2023-01-18T13:14:37.536Z,17.20
2023-01-18T13:17:35.502Z,15.40
2023-01-18T13:20:11.603Z,15.80
2023-01-18T13:22:47.954Z,13.95
2023-01-18T13:25:32.815Z,13.95
2023-01-18T13:28:05.264Z,12.75
2023-01-18T13:30:46.639Z,12.30
2023-01-18T13:33:14.663Z,11.45
2023-01-18T13:35:54.381Z,11.50
2023-01-18T13:38:40.141Z,11.02
2023-01-18T13:41:12.269Z,11.68
2023-01-18T13:43:45.779Z,12.48
2023-01-18T13:46:19.002Z,13.02
2023-01-18T13:48:57.492Z,13.93
2023-01-18T13:51:36.576Z,13.60
2023-01-18T13:54:04.378Z,13.38
2023-01-18T13:56:33.368Z,12.63
2023-01-18T13:59:06.223Z,13.77
2023-01-18T14:01:36.554Z,16.20
2023-01-18T14:04:26.626Z,15.07
2023-01-18T14:06:56.146Z,12.80
2023-01-18T14:09:42.777Z,12.90
2023-01-18T14:12:11.050Z,13.73
2023-01-18T14:15:02.673Z,14.80
2023-01-18T14:17:57.863Z,15.85
2023-01-18T14:20:42.059Z,13.98
2023-01-18T14:23:35.018Z,13.70
2023-01-18T14:26:06.169Z,13.52
2023-01-18T14:28:45.477Z,12.93
2023-01-18T14:31:18.671Z,16.05
2023-01-18T14:33:47.198Z,14.80
2023-01-18T14:36:26.441Z,15.25
2023-01-18T14:39:17.672Z,13.52
2023-01-18T14:44:57.789Z,15.55
2023-01-18T14:49:55.866Z,13.77
2023-01-18T14:52:28.761Z,12.70
2023-01-18T14:54:56.079Z,13.05
2023-01-18T14:57:24.228Z,12.73
2023-01-18T15:00:14.642Z,12.98
2023-01-18T15:02:41.609Z,13.33
2023-01-18T15:05:19.855Z,14.75
2023-01-18T15:07:55.295Z,15.63
2023-01-18T15:10:24.315Z,18.20
2023-01-18T15:12:54.906Z,16.42
2023-01-18T15:15:32.271Z,15.93
2023-01-18T15:18:25.603Z,15.05
2023-01-18T15:20:59.634Z,12.82
2023-01-18T15:23:30.228Z,13.30
2023-01-18T15:25:57.922Z,13.85
2023-01-18T15:28:31.418Z,13.10
2023-01-18T15:30:58.822Z,14.57
2023-01-18T15:33:27.387Z,12.50
2023-01-18T15:36:01.147Z,12.20
2023-01-18T15:38:28.638Z,13.13
2023-01-18T15:40:58.552Z,12.35
2023-01-18T15:43:38.067Z,12.23
2023-01-18T15:46:09.765Z,13.02
2023-01-18T15:48:48.316Z,11.77
2023-01-18T15:51:15.389Z,11.25
2023-01-18T15:53:52.501Z,11.15
2023-01-18T15:56:25.383Z,12.63
2023-01-18T15:58:55.960Z,11.18
2023-01-18T16:01:29.454Z,12.77
2023-01-18T16:04:19.153Z,12.80
2023-01-18T16:06:46.394Z,12.55
2023-01-18T16:09:14.270Z,12.73
2023-01-18T16:11:41.159Z,12.38
2023-01-18T16:14:36.373Z,11.55
2023-01-18T16:17:12.520Z,12.13
2023-01-18T16:19:45.958Z,12.82
2023-01-18T16:22:25.430Z,11.38
2023-01-18T16:25:02.260Z,11.40
2023-01-18T16:27:31.532Z,14.15
2023-01-18T16:30:01.307Z,12.32
2023-01-18T16:32:36.376Z,11.48
2023-01-18T16:35:14.140Z,8.60
2023-01-18T16:37:42.152Z,11.60
2023-01-18T16:40:09.880Z,12.23
2023-01-18T16:43:02.455Z,12.57
2023-01-18T16:45:35.589Z,13.82
2023-01-18T16:48:05.996Z,11.63
2023-01-18T16:50:35.376Z,10.50
2023-01-18T16:53:03.887Z,10.65
2023-01-18T16:55:30.761Z,9.57
2023-01-18T16:57:58.144Z,10.27
2023-01-18T17:00:35.871Z,9.98
2023-01-18T17:03:03.882Z,9.80
2023-01-18T17:05:36.669Z,9.20
2023-01-18T17:08:05.099Z,8.60
2023-01-18T17:10:48.237Z,8.35
2023-01-18T17:13:18.915Z,8.77
2023-01-18T17:15:46.127Z,8.90
2023-01-18T17:18:16.259Z,9.07
2023-01-18T17:20:43.782Z,8.40
2023-01-18T17:23:11.207Z,8.15
2023-01-18T17:25:46.914Z,8.23
2023-01-18T17:28:18.550Z,7.65
2023-01-18T17:31:04.216Z,7.53
2023-01-18T17:33:39.737Z,6.47
2023-01-18T17:36:15.468Z,6.90
2023-01-18T17:38:45.942Z,6.78
2023-01-18T17:41:33.955Z,5.70
2023-01-18T17:44:01.544Z,5.80
2023-01-18T17:46:29.421Z,7.85
2023-01-18T17:49:02.747Z,7.35
2023-01-18T17:51:30.397Z,8.73
2023-01-18T17:54:02.073Z,10.02
2023-01-18T17:56:39.811Z,9.02
2023-01-18T17:59:10.057Z,6.45
2023-01-18T18:01:40.342Z,4.75
2023-01-18T18:04:07.947Z,4.55
2023-01-18T18:06:40.499Z,4.15
2023-01-18T18:09:13.530Z,5.82
2023-01-18T18:11:40.581Z,6.13
2023-01-18T18:14:12.911Z,5.70
2023-01-18T18:16:43.512Z,4.90
2023-01-18T18:19:14.960Z,4.60
2023-01-18T18:21:46.362Z,5.10
2023-01-18T18:24:15.790Z,3.88
2023-01-18T18:26:43.313Z,3.83
2023-01-18T18:29:10.921Z,3.30
2023-01-18T18:31:42.657Z,2.60
2023-01-18T18:34:13.826Z,2.05
2023-01-18T18:36:41.946Z,2.80
2023-01-18T18:39:12.249Z,1.95
2023-01-18T18:41:39.478Z,2.60
2023-01-18T18:44:06.818Z,2.58
2023-01-18T18:46:34.152Z,2.00
2023-01-18T18:49:01.360Z,2.65
2023-01-18T18:51:28.675Z,2.53
2023-01-18T18:53:56.729Z,2.50
2023-01-18T18:56:23.978Z,3.40
2023-01-18T18:58:51.522Z,4.50
2023-01-18T19:01:27.804Z,3.78
2023-01-18T19:03:55.745Z,3.88
2023-01-18T19:06:27.603Z,3.42
2023-01-18T19:08:55.716Z,2.72
2023-01-18T19:11:22.940Z,3.22
2023-01-18T19:13:50.284Z,3.00
2023-01-18T19:16:18.076Z,2.90
2023-01-18T19:18:45.386Z,3.35
2023-01-18T19:21:15.949Z,3.78
2023-01-18T19:23:45.846Z,3.58
2023-01-18T19:26:13.367Z,3.47
2023-01-18T19:28:40.889Z,3.42
2023-01-18T19:31:09.111Z,3.40
2023-01-18T19:33:36.943Z,3.55
2023-01-18T19:36:13.417Z,3.78
2023-01-18T19:38:57.750Z,2.88
2023-01-18T19:41:33.567Z,3.40
2023-01-18T19:44:03.908Z,3.20
2023-01-18T19:46:34.176Z,3.40
2023-01-18T19:49:06.272Z,1.98
2023-01-18T19:51:37.454Z,2.90
2023-01-18T19:54:05.012Z,2.47
2023-01-18T19:56:34.998Z,3.33
2023-01-18T19:59:05.316Z,3.85
2023-01-18T20:01:36.914Z,4.88
2023-01-18T20:04:06.795Z,4.50
2023-01-18T20:06:46.318Z,4.40
2023-01-18T20:09:19.843Z,4.43
2023-01-18T20:11:52.657Z,4.55
2023-01-18T20:14:24.372Z,4.88
2023-01-18T20:16:54.035Z,4.05
2023-01-18T20:19:21.220Z,4.03
2023-01-18T20:21:50.111Z,4.10
2023-01-18T20:24:20.292Z,4.55
2023-01-18T20:26:50.444Z,4.70
2023-01-18T20:29:18.169Z,5.40
2023-01-18T20:31:49.996Z,4.53
2023-01-18T20:34:17.511Z,4.20
2023-01-18T20:36:46.291Z,4.60
2023-01-18T20:39:14.199Z,2.92
2023-01-18T20:41:42.007Z,3.35
2023-01-18T20:44:09.483Z,3.53
2023-01-18T20:46:37.569Z,2.83
2023-01-18T20:49:05.346Z,3.00
2023-01-18T20:51:33.270Z,2.25
2023-01-18T20:54:00.879Z,2.10
2023-01-18T20:56:29.831Z,2.70
2023-01-18T20:59:08.159Z,2.80
2023-01-18T21:01:35.914Z,3.08
2023-01-18T21:04:05.998Z,2.72
2023-01-18T21:06:33.655Z,2.40
2023-01-18T21:09:03.922Z,2.55
2023-01-18T21:11:35.320Z,2.17
2023-01-18T21:14:06.067Z,2.03
2023-01-18T21:16:35.686Z,2.42
2023-01-18T21:19:03.007Z,2.47
2023-01-18T21:21:32.037Z,2.42
2023-01-18T21:24:00.399Z,2.40
2023-01-18T21:26:27.736Z,2.33
2023-01-18T21:28:58.056Z,2.00
2023-01-18T21:31:27.938Z,2.28
2023-01-18T21:33:55.730Z,2.42
2023-01-18T21:36:23.405Z,2.53
2023-01-18T21:38:55.803Z,1.98
2023-01-18T21:41:47.635Z,2.50
2023-01-18T21:44:33.242Z,2.53
2023-01-18T21:47:01.991Z,2.13
2023-01-18T21:50:15.392Z,2.25
2023-01-18T21:53:01.536Z,2.75
2023-01-18T21:55:28.455Z,2.30
2023-01-18T21:58:13.921Z,2.50
2023-01-18T22:00:42.585Z,2.55
2023-01-18T22:03:09.893Z,2.50
2023-01-18T22:05:38.236Z,2.50
2023-01-18T22:08:06.167Z,2.60
2023-01-18T22:10:35.240Z,2.25
2023-01-18T22:13:02.205Z,1.92
2023-01-18T22:15:31.338Z,2.25
2023-01-18T22:17:58.730Z,1.90
2023-01-18T22:20:25.802Z,1.80
2023-01-18T22:22:52.822Z,1.90
2023-01-18T22:25:19.824Z,2.20
2023-01-18T22:27:46.706Z,1.85
2023-01-18T22:30:15.092Z,2.00
2023-01-18T22:32:42.357Z,2.28
2023-01-18T22:35:09.507Z,2.10
2023-01-18T22:37:39.355Z,2.00
2023-01-18T22:40:07.289Z,1.60
2023-01-18T22:42:35.540Z,1.90
2023-01-18T22:45:02.488Z,1.77
2023-01-18T22:47:30.132Z,1.55
2023-01-18T22:49:57.147Z,1.50
2023-01-18T22:52:24.018Z,1.60
2023-01-18T22:54:50.917Z,1.30
2023-01-18T22:57:17.800Z,1.20
2023-01-18T22:59:44.754Z,1.13
2023-01-18T23:02:11.707Z,1.25
2023-01-18T23:04:38.584Z,1.05
2023-01-18T23:07:05.491Z,1.33
2023-01-18T23:09:32.403Z,1.40
2023-01-18T23:11:59.332Z,1.30
2023-01-18T23:14:44.715Z,1.70
2023-01-18T23:17:30.407Z,1.65
2023-01-18T23:19:57.470Z,1.30
2023-01-18T23:22:24.392Z,1.55
2023-01-18T23:24:51.323Z,1.15
2023-01-18T23:27:18.256Z,1.20
2023-01-18T23:29:55.502Z,0.90
2023-01-18T23:32:26.639Z,0.80
2023-01-18T23:34:54.626Z,0.90
2023-01-18T23:37:22.039Z,0.60
2023-01-18T23:40:07.347Z,0.90
2023-01-18T23:42:53.052Z,1.02
2023-01-18T23:45:38.322Z,1.08
2023-01-18T23:48:35.627Z,1.00
2023-01-18T23:51:21.724Z,1.10
2023-01-18T23:54:07.381Z,1.00
2023-01-18T23:56:34.440Z,0.90
2023-01-18T23:59:02.478Z,1.20
